Time;durP1;ratioP1;P1;durP2;ratioP2;P2;SDS_P1;SDS_P2;PMS_P1;PMS_P2;Temp;Humidity;BMP_temperature;BMP_pressure;BME280_temperature;BME280_humidity;BME280_pressure;Samples;Min_cycle;Max_cycle;Signal;HPM_P1;HPM_P2
2023/08/31 00:00:04;;;;;;;1.33;0.88;;;;;;;16.04;93.03;98884.13;337747;28;17979;-74
2023/08/31 00:00:16;;;;;;;1.52;0.80;;;;;;;15.99;93.15;98876.56;339944;28;4473;-73
2023/08/31 00:00:28;;;;;;;1.50;0.73;;;;;;;16.00;92.89;98882.63;335960;28;18181;-73
2023/08/31 00:00:41;;;;;;;1.80;0.90;;;;;;;15.97;93.09;98876.66;338792;28;4485;-73
2023/08/31 00:00:53;;;;;;;2.00;1.00;;;;;;;15.98;93.27;98880.13;333613;28;18187;-73
2023/08/31 00:01:05;;;;;;;1.23;0.93;;;;;;;16.00;93.21;98878.25;340207;28;4502;-73
2023/08/31 00:01:18;;;;;;;1.50;1.10;;;;;;;16.05;93.37;98883.19;338124;28;17927;-73
2023/08/31 00:01:30;;;;;;;1.65;1.10;;;;;;;16.09;93.03;98884.66;340804;28;5206;-73
2023/08/31 00:01:42;;;;;;;1.75;1.10;;;;;;;16.08;92.52;98875.94;341289;28;5406;-73
2023/08/31 00:01:54;;;;;;;1.63;1.00;;;;;;;16.08;92.67;98881.19;332765;28;17838;-73
2023/08/31 00:02:06;;;;;;;1.15;0.90;;;;;;;16.09;92.78;98876.78;340032;28;4653;-73
2023/08/31 00:02:19;;;;;;;1.20;0.90;;;;;;;16.05;92.36;98878.75;336988;28;18339;-73
2023/08/31 00:02:31;;;;;;;1.40;1.20;;;;;;;15.98;92.79;98882.75;339338;28;5461;-74
2023/08/31 00:02:43;;;;;;;1.20;1.10;;;;;;;15.95;92.97;98875.91;336965;28;18135;-74
2023/08/31 00:02:55;;;;;;;1.33;1.13;;;;;;;15.92;92.91;98881.38;339507;28;4692;-73
2023/08/31 00:03:09;;;;;;;1.30;1.10;;;;;;;15.87;93.47;98880.00;339638;28;4754;-73
2023/08/31 00:03:22;;;;;;;1.60;1.27;;;;;;;15.87;93.47;98883.47;337711;28;18073;-73
2023/08/31 00:03:35;;;;;;;1.50;1.10;;;;;;;15.88;93.53;98879.91;334841;28;19008;-73
2023/08/31 00:03:47;;;;;;;1.45;1.00;;;;;;;15.89;93.55;98875.50;338647;28;4533;-73
2023/08/31 00:03:59;;;;;;;2.17;0.90;;;;;;;15.90;93.66;98883.28;335341;28;17925;-73
2023/08/31 00:04:14;;;;;;;2.15;0.90;;;;;;;15.95;93.55;98875.91;338658;28;4668;-73
2023/08/31 00:04:27;;;;;;;1.52;1.10;;;;;;;16.00;93.25;98887.88;336765;28;18026;-74
2023/08/31 00:04:39;;;;;;;1.15;0.90;;;;;;;16.02;93.19;98881.59;336351;28;20604;-73
2023/08/31 00:04:53;;;;;;;1.17;0.85;;;;;;;16.08;93.05;98885.59;335262;28;4574;-72
2023/08/31 00:05:06;;;;;;;1.90;0.88;;;;;;;16.12;92.50;98871.34;337459;28;18290;-72
2023/08/31 00:05:18;;;;;;;1.80;0.90;;;;;;;16.13;92.44;98871.22;339778;28;5505;-73
2023/08/31 00:05:30;;;;;;;1.70;0.90;;;;;;;16.11;92.27;98880.97;337431;28;18098;-73
2023/08/31 00:05:43;;;;;;;1.40;0.90;;;;;;;16.09;92.44;98877.63;339950;28;4473;-73
2023/08/31 00:05:56;;;;;;;1.73;0.82;;;;;;;16.01;92.65;98887.78;337052;28;18433;-74
2023/08/31 00:06:08;;;;;;;2.22;0.77;;;;;;;16.05;92.75;98885.78;340584;28;4629;-73
2023/08/31 00:06:21;;;;;;;1.90;0.80;;;;;;;16.02;92.71;98876.38;332765;28;19073;-74
2023/08/31 00:06:34;;;;;;;2.63;0.82;;;;;;;16.04;92.90;98878.88;338602;28;5408;-74
2023/08/31 00:06:46;;;;;;;2.03;0.90;;;;;;;16.05;92.80;98881.38;334842;28;18240;-73
2023/08/31 00:06:59;;;;;;;2.58;1.00;;;;;;;16.02;92.85;98875.50;339806;28;4490;-73
2023/08/31 00:07:11;;;;;;;1.70;0.93;;;;;;;15.95;93.15;98875.91;336851;28;18317;-73
2023/08/31 00:07:23;;;;;;;1.23;0.88;;;;;;;15.94;93.08;98879.50;339859;28;5565;-73
2023/08/31 00:07:35;;;;;;;1.80;0.90;;;;;;;15.96;93.21;98882.03;336854;28;12531;-73
2023/08/31 00:07:47;;;;;;;1.90;0.90;;;;;;;15.99;93.20;98873.94;335076;28;4699;-72
2023/08/31 00:07:59;;;;;;;3.17;0.85;;;;;;;16.05;93.18;98870.06;339519;28;5506;-73
2023/08/31 00:08:13;;;;;;;2.90;0.80;;;;;;;16.03;92.84;98882.44;336907;28;18130;-73
2023/08/31 00:08:26;;;;;;;2.53;0.80;;;;;;;15.98;93.14;98878.34;337125;28;18033;-74
2023/08/31 00:08:38;;;;;;;1.65;0.90;;;;;;;15.98;93.00;98872.28;339446;28;5707;-73
2023/08/31 00:08:50;;;;;;;1.40;0.90;;;;;;;15.99;93.17;98871.31;337131;28;4552;-73
2023/08/31 00:09:05;;;;;;;1.20;0.90;;;;;;;16.02;93.27;98870.25;339990;28;4668;-73
2023/08/31 00:09:18;;;;;;;1.38;0.80;;;;;;;16.01;93.12;98868.59;336912;28;17805;-73
2023/08/31 00:09:31;;;;;;;1.50;0.70;;;;;;;15.98;93.04;98886.22;335686;28;11262;-74
2023/08/31 00:09:43;;;;;;;1.38;0.70;;;;;;;15.96;93.18;98872.38;339280;28;4581;-74
2023/08/31 00:09:55;;;;;;;0.90;0.70;;;;;;;15.96;93.38;98872.38;339845;28;4480;-74
2023/08/31 00:10:11;;;;;;;1.27;0.80;;;;;;;15.95;93.42;98870.69;337111;28;17721;-73
2023/08/31 00:10:23;;;;;;;1.17;0.80;;;;;;;15.99;93.37;98876.56;333029;28;22435;-73
2023/08/31 00:10:36;;;;;;;1.10;0.70;;;;;;;16.02;93.54;98870.25;338918;28;6514;-73
2023/08/31 00:10:58;;;;;;;2.05;0.73;;;;;;;15.99;93.11;98866.06;336595;28;18043;-72
2023/08/31 00:11:10;;;;;;;1.63;0.90;;;;;;;15.96;93.30;98867.13;335737;28;17327;-72
2023/08/31 00:11:23;;;;;;;1.70;0.88;;;;;;;15.97;93.27;98868.78;338010;28;4661;-72
2023/08/31 00:11:36;;;;;;;1.65;0.90;;;;;;;16.00;93.26;98869.53;335359;28;11742;-72
2023/08/31 00:11:48;;;;;;;1.50;0.90;;;;;;;16.03;93.08;98861.47;338070;28;4571;-72
2023/08/31 00:12:03;;;;;;;1.70;0.90;;;;;;;16.06;93.08;98869.16;337626;28;4706;-72
2023/08/31 00:12:15;;;;;;;1.40;1.00;;;;;;;16.10;93.18;98868.00;332425;28;17546;-72
2023/08/31 00:12:27;;;;;;;1.60;1.00;;;;;;;16.08;92.81;98868.09;336608;28;17796;-72
2023/08/31 00:12:40;;;;;;;1.73;1.00;;;;;;;16.07;92.90;98865.56;339777;28;4674;-72
2023/08/31 00:12:52;;;;;;;1.42;1.05;;;;;;;16.08;93.00;98867.25;336269;28;18080;-73
2023/08/31 00:13:08;;;;;;;1.40;0.98;;;;;;;16.10;93.00;98874.06;338629;28;5107;-73
2023/08/31 00:13:21;;;;;;;1.27;0.85;;;;;;;16.08;92.81;98870.72;335738;28;17601;-73
2023/08/31 00:13:33;;;;;;;1.20;0.90;;;;;;;16.00;92.90;98864.28;336734;28;18910;-73
2023/08/31 00:13:45;;;;;;;1.10;0.90;;;;;;;15.97;93.22;98866.16;339467;28;4494;-73
2023/08/31 00:13:58;;;;;;;1.20;0.90;;;;;;;15.93;92.93;98867.31;333796;28;15686;-73
2023/08/31 00:14:10;;;;;;;1.08;0.80;;;;;;;15.96;93.36;98872.38;338836;28;4657;-73
2023/08/31 00:14:24;;;;;;;0.98;0.77;;;;;;;15.96;93.31;98863.69;335924;28;4512;-73
2023/08/31 00:14:37;;;;;;;0.90;0.80;;;;;;;15.91;93.30;98868.38;338074;28;6195;-74
2023/08/31 00:14:50;;;;;;;1.40;0.90;;;;;;;15.92;93.54;98865.66;334907;28;17687;-74
2023/08/31 00:15:04;;;;;;;1.40;0.90;;;;;;;15.93;93.59;98867.31;338187;28;4702;-73
2023/08/31 00:15:16;;;;;;;0.98;0.88;;;;;;;15.98;93.58;98867.88;337107;28;18963;-73
2023/08/31 00:15:29;;;;;;;1.08;0.90;;;;;;;15.98;93.41;98873.09;336814;28;18015;-73
2023/08/31 00:15:41;;;;;;;1.17;0.90;;;;;;;15.92;93.55;98870.91;339590;28;5315;-73
2023/08/31 00:15:56;;;;;;;1.08;0.93;;;;;;;15.95;93.60;98875.09;335833;28;18176;-73
2023/08/31 00:16:09;;;;;;;0.80;0.73;;;;;;;15.93;93.54;98871.72;337035;28;12021;-74
2023/08/31 00:16:26;;;;;;;0.95;0.70;;;;;;;15.85;93.83;98874.84;339840;28;4549;-73
2023/08/31 00:16:38;;;;;;;1.08;0.80;;;;;;;15.81;94.18;98878.63;336571;28;17757;-73
2023/08/31 00:16:50;;;;;;;0.95;0.80;;;;;;;15.83;94.04;98868.88;330776;28;18231;-73
2023/08/31 00:17:03;;;;;;;1.67;0.90;;;;;;;15.88;94.04;98868.59;338807;28;4673;-73
2023/08/31 00:17:15;;;;;;;1.40;0.82;;;;;;;15.84;94.04;98862.72;335842;28;17709;-73
2023/08/31 00:17:27;;;;;;;1.02;0.80;;;;;;;15.87;94.19;98869.53;338418;28;4512;-74
2023/08/31 00:17:39;;;;;;;0.90;0.77;;;;;;;15.86;94.12;98871.31;335492;28;11969;-74
2023/08/31 00:17:52;;;;;;;0.85;0.70;;;;;;;15.87;94.12;98867.72;337318;28;4606;-73
2023/08/31 00:18:04;;;;;;;0.70;0.60;;;;;;;15.90;93.91;98867.53;338396;28;16562;-74
2023/08/31 00:18:16;;;;;;;1.10;0.75;;;;;;;15.87;93.91;98865.13;335303;28;18374;-74
2023/08/31 00:18:28;;;;;;;1.50;0.80;;;;;;;15.85;94.19;98868.78;339334;28;4522;-74
2023/08/31 00:18:40;;;;;;;1.50;0.90;;;;;;;15.88;94.01;98874.66;336313;28;17917;-74
2023/08/31 00:18:54;;;;;;;1.10;0.80;;;;;;;15.91;94.06;98871.81;339343;28;4485;-74
2023/08/31 00:19:06;;;;;;;1.38;0.80;;;;;;;15.95;93.86;98870.69;337328;28;17841;-72
2023/08/31 00:19:19;;;;;;;1.40;0.82;;;;;;;15.96;93.73;98877.63;339977;28;5597;-73
2023/08/31 00:19:33;;;;;;;1.00;0.80;;;;;;;16.00;93.46;98877.38;334158;28;17177;-73
2023/08/31 00:19:45;;;;;;;0.93;0.80;;;;;;;16.00;93.57;98872.16;336715;28;18691;-73
2023/08/31 00:19:57;;;;;;;0.88;0.80;;;;;;;16.00;93.57;98872.16;339786;28;4542;-73
2023/08/31 00:20:13;;;;;;;1.30;0.80;;;;;;;16.01;93.50;98868.59;336879;28;18179;-72
2023/08/31 00:20:26;;;;;;;1.90;0.80;;;;;;;16.04;93.51;98868.41;336986;28;17479;-73
2023/08/31 00:20:38;;;;;;;1.90;0.90;;;;;;;16.05;93.36;98870.06;339921;28;4626;-73
2023/08/31 00:20:51;;;;;;;2.38;0.95;;;;;;;16.01;93.33;98874.69;337040;28;19302;-73
2023/08/31 00:21:03;;;;;;;2.15;1.00;;;;;;;15.97;93.39;98875.81;339469;28;4552;-73
2023/08/31 00:21:15;;;;;;;1.10;0.82;;;;;;;16.00;93.51;98866.91;338458;28;5062;-73
2023/08/31 00:21:28;;;;;;;1.33;0.98;;;;;;;16.00;93.32;98869.53;337928;28;11006;-73
2023/08/31 00:21:40;;;;;;;2.20;1.10;;;;;;;16.00;93.30;98867.78;339114;28;4566;-73
2023/08/31 00:21:52;;;;;;;1.98;1.00;;;;;;;15.96;93.37;98872.38;337132;28;19133;-73
2023/08/31 00:22:04;;;;;;;1.30;0.80;;;;;;;15.93;93.43;98876.97;337373;28;4718;-73
2023/08/31 00:22:16;;;;;;;1.05;0.82;;;;;;;15.95;93.40;98873.28;335891;28;18020;-73
2023/08/31 00:22:28;;;;;;;1.50;1.00;;;;;;;15.95;93.51;98870.69;337280;28;4696;-73
2023/08/31 00:22:40;;;;;;;1.33;0.93;;;;;;;15.96;93.31;98871.53;337540;28;5898;-73
2023/08/31 00:22:52;;;;;;;1.15;0.90;;;;;;;15.98;93.44;98870.47;335630;28;19490;-73
2023/08/31 00:23:05;;;;;;;1.25;1.00;;;;;;;16.01;93.46;98873.84;338823;28;4745;-73
2023/08/31 00:23:18;;;;;;;1.45;1.05;;;;;;;15.97;93.33;98868.78;336789;28;18492;-74
2023/08/31 00:23:31;;;;;;;2.20;1.00;;;;;;;15.97;93.44;98873.19;336711;28;4949;-74
2023/08/31 00:23:43;;;;;;;2.00;0.90;;;;;;;15.96;93.71;98864.50;339982;28;5086;-74
2023/08/31 00:23:55;;;;;;;1.10;0.70;;;;;;;15.93;93.69;98872.56;339822;28;4674;-73
2023/08/31 00:24:07;;;;;;;1.40;0.68;;;;;;;15.95;93.62;98869.84;338582;28;18078;-74
2023/08/31 00:24:21;;;;;;;1.48;0.80;;;;;;;15.99;93.50;98866.06;337169;28;5399;-74
2023/08/31 00:24:36;;;;;;;1.58;1.05;;;;;;;15.97;93.47;98866.16;338487;28;18407;-73
2023/08/31 00:24:48;;;;;;;1.25;1.00;;;;;;;15.93;93.80;98867.31;338210;28;18099;-74
2023/08/31 00:25:00;;;;;;;1.13;1.00;;;;;;;15.96;93.62;98871.53;339499;28;4542;-73
2023/08/31 00:25:13;;;;;;;1.17;1.00;;;;;;;15.96;93.32;98872.38;335248;28;19110;-73
2023/08/31 00:25:25;;;;;;;1.27;0.93;;;;;;;15.95;93.50;98873.28;337696;28;4872;-73
2023/08/31 00:25:37;;;;;;;1.48;0.90;;;;;;;15.92;93.57;98867.44;329494;28;11877;-73
2023/08/31 00:25:49;;;;;;;1.45;0.80;;;;;;;15.93;93.78;98867.31;338185;28;4726;-73
2023/08/31 00:26:01;;;;;;;1.30;0.88;;;;;;;15.95;93.58;98865.44;338516;28;4734;-73
2023/08/31 00:26:12;;;;;;;1.67;0.90;;;;;;;15.98;93.28;98861.78;335698;28;18344;-73
2023/08/31 00:26:25;;;;;;;1.80;0.90;;;;;;;16.01;93.21;98863.34;338161;28;5795;-73
2023/08/31 00:26:42;;;;;;;1.40;0.80;;;;;;;15.97;93.15;98863.53;335150;28;17477;-73
2023/08/31 00:26:54;;;;;;;1.13;0.85;;;;;;;15.94;93.61;98869.00;335378;28;16973;-73
2023/08/31 00:27:06;;;;;;;2.42;1.00;;;;;;;15.95;93.84;98859.38;338418;28;5431;-73
2023/08/31 00:27:18;;;;;;;2.58;1.00;;;;;;;15.89;93.59;98871.09;335665;28;5061;-73
2023/08/31 00:27:30;;;;;;;1.63;0.80;;;;;;;15.91;93.78;98869.19;338298;28;5202;-73
2023/08/31 00:27:42;;;;;;;1.27;0.80;;;;;;;15.94;93.82;98866.41;336169;28;12154;-73
2023/08/31 00:27:57;;;;;;;0.90;0.80;;;;;;;16.00;93.69;98869.53;340236;28;5042;-73
2023/08/31 00:28:09;;;;;;;1.17;0.70;;;;;;;16.03;93.36;98864.09;336313;28;17644;-73
2023/08/31 00:28:21;;;;;;;1.27;0.77;;;;;;;15.91;93.47;98866.59;338281;28;5104;-72
2023/08/31 00:28:33;;;;;;;1.20;0.80;;;;;;;15.97;93.63;98868.78;331894;28;5580;-73
2023/08/31 00:28:45;;;;;;;0.73;0.70;;;;;;;15.96;93.56;98867.13;339717;28;5115;-73
2023/08/31 00:28:58;;;;;;;0.98;0.85;;;;;;;15.99;93.50;98860.84;336787;28;4680;-73
2023/08/31 00:29:10;;;;;;;1.58;1.08;;;;;;;16.02;93.75;98868.50;338266;28;18020;-73
2023/08/31 00:29:23;;;;;;;2.10;1.20;;;;;;;15.98;93.78;98867.88;336257;28;10185;-73
2023/08/31 00:29:35;;;;;;;1.55;1.02;;;;;;;15.98;93.52;98870.47;338228;28;4730;-73
2023/08/31 00:29:50;;;;;;;2.08;0.80;;;;;;;16.00;93.40;98866.91;339816;28;6023;-73
2023/08/31 00:30:07;;;;;;;2.15;0.80;;;;;;;15.97;93.47;98863.53;336637;28;16992;-74
2023/08/31 00:30:20;;;;;;;1.42;0.90;;;;;;;15.99;93.46;98866.06;337297;28;18046;-74
2023/08/31 00:30:32;;;;;;;1.65;0.85;;;;;;;16.03;93.58;98867.53;338541;28;4700;-73
2023/08/31 00:30:45;;;;;;;1.65;0.82;;;;;;;16.07;93.20;98866.41;336097;28;17822;-74
2023/08/31 00:30:57;;;;;;;1.23;0.95;;;;;;;16.10;93.33;98862.75;339306;28;4533;-74
2023/08/31 00:31:10;;;;;;;1.52;0.95;;;;;;;16.11;93.05;98865.25;335947;28;11439;-73
2023/08/31 00:31:22;;;;;;;1.52;1.10;;;;;;;16.12;93.25;98864.31;338403;28;5549;-73
2023/08/31 00:31:34;;;;;;;1.05;0.95;;;;;;;16.11;93.04;98873.09;336654;28;12170;-73
2023/08/31 00:31:48;;;;;;;1.15;0.90;;;;;;;16.11;93.13;98864.41;339913;28;5288;-73
2023/08/31 00:32:00;;;;;;;2.70;0.90;;;;;;;16.06;92.93;98862.09;335511;28;18307;-73
2023/08/31 00:32:13;;;;;;;2.45;0.80;;;;;;;16.06;93.23;98867.34;338434;28;5046;-73
2023/08/31 00:32:25;;;;;;;1.00;0.88;;;;;;;16.07;93.15;98862.94;336135;28;18874;-73
2023/08/31 00:32:39;;;;;;;0.90;0.80;;;;;;;15.97;93.58;98862.72;339170;28;4700;-73
2023/08/31 00:32:53;;;;;;;0.88;0.75;;;;;;;15.96;93.58;98874.16;336515;28;17986;-73
2023/08/31 00:33:05;;;;;;;1.27;0.80;;;;;;;15.91;93.82;98871.81;332608;28;18158;-73
2023/08/31 00:33:17;;;;;;;1.45;0.88;;;;;;;15.94;93.81;98869.00;339587;28;4525;-73
2023/08/31 00:33:33;;;;;;;1.38;0.93;;;;;;;15.89;93.86;98865.84;335198;28;18211;-73
2023/08/31 00:33:45;;;;;;;1.20;0.90;;;;;;;15.86;94.23;98867.88;337209;28;18114;-73
2023/08/31 00:33:57;;;;;;;1.00;0.80;;;;;;;15.90;94.19;98867.53;340093;28;4520;-73
2023/08/31 00:34:11;;;;;;;1.20;0.80;;;;;;;15.88;94.18;98869.44;337671;28;11570;-74
2023/08/31 00:34:23;;;;;;;2.33;1.20;;;;;;;15.90;94.26;98862.31;335396;28;4606;-74
2023/08/31 00:34:35;;;;;;;2.38;1.13;;;;;;;15.93;94.01;98862.09;336183;28;18217;-73
2023/08/31 00:34:48;;;;;;;1.42;0.85;;;;;;;15.94;93.98;98868.19;339604;28;5444;-74
2023/08/31 00:35:00;;;;;;;1.17;0.90;;;;;;;15.95;93.91;98870.69;336034;28;11773;-74
2023/08/31 00:35:12;;;;;;;1.02;0.80;;;;;;;15.98;93.85;98873.09;338858;28;5524;-74
2023/08/31 00:35:24;;;;;;;1.70;0.80;;;;;;;16.02;93.71;98870.25;338343;28;4532;-74
2023/08/31 00:35:36;;;;;;;1.67;0.77;;;;;;;16.05;93.55;98870.06;336041;28;18275;-74
2023/08/31 00:35:48;;;;;;;1.60;0.82;;;;;;;16.10;93.29;98878.47;339195;28;4615;-74
2023/08/31 00:36:04;;;;;;;1.10;1.00;;;;;;;16.02;93.33;98865.03;338381;28;4674;-73
2023/08/31 00:36:18;;;;;;;1.23;1.00;;;;;;;15.98;93.76;98873.09;336407;28;17686;-73
2023/08/31 00:36:31;;;;;;;1.10;0.82;;;;;;;15.94;93.70;98869.00;336995;28;18933;-73
2023/08/31 00:36:43;;;;;;;1.50;0.90;;;;;;;15.90;93.99;98872.78;336498;28;18542;-73
2023/08/31 00:36:55;;;;;;;1.85;0.95;;;;;;;15.94;94.02;98874.25;339671;28;4690;-73
2023/08/31 00:37:08;;;;;;;1.60;0.90;;;;;;;15.92;94.17;98870.91;337418;28;10352;-73
2023/08/31 00:37:21;;;;;;;1.60;0.90;;;;;;;15.89;94.39;98876.34;340119;28;5270;-73
2023/08/31 00:37:34;;;;;;;1.38;0.98;;;;;;;15.91;94.32;98879.69;336991;28;17915;-73
2023/08/31 00:37:46;;;;;;;1.38;0.98;;;;;;;15.93;94.22;98872.56;338755;28;4746;-73
2023/08/31 00:37:58;;;;;;;1.40;0.90;;;;;;;15.89;94.20;98873.72;335561;28;16977;-73
2023/08/31 00:38:12;;;;;;;1.80;0.80;;;;;;;15.91;94.37;98879.69;339939;28;4636;-73
2023/08/31 00:38:25;;;;;;;1.85;1.02;;;;;;;15.94;94.15;98882.13;336967;28;18583;-74
2023/08/31 00:38:37;;;;;;;1.73;1.20;;;;;;;15.95;94.20;98881.16;339950;28;5365;-73
2023/08/31 00:38:49;;;;;;;2.30;1.17;;;;;;;15.98;94.10;98880.97;336831;28;18074;-73
2023/08/31 00:39:10;;;;;;;1.80;0.85;;;;;;;16.01;94.16;98873.84;339679;28;5110;-74
2023/08/31 00:39:22;;;;;;;1.50;0.93;;;;;;;16.07;93.69;98881.28;336248;28;17838;-73
2023/08/31 00:39:34;;;;;;;1.80;1.15;;;;;;;16.08;93.61;98881.19;335551;28;4793;-73
2023/08/31 00:39:47;;;;;;;2.00;1.30;;;;;;;16.00;94.15;98878.25;340092;28;5066;-73
2023/08/31 00:39:59;;;;;;;1.40;1.17;;;;;;;15.95;94.16;98882.94;336115;28;11659;-73
2023/08/31 00:40:13;;;;;;;1.45;1.08;;;;;;;15.98;94.04;98880.97;339298;28;5504;-73
2023/08/31 00:40:25;;;;;;;1.48;1.10;;;;;;;16.02;93.82;98878.13;335891;28;17890;-73
2023/08/31 00:40:44;;;;;;;1.90;1.00;;;;;;;16.00;93.69;98880.88;339103;28;5592;-73
2023/08/31 00:40:56;;;;;;;3.45;0.90;;;;;;;16.01;93.86;98879.09;337284;28;17745;-73
2023/08/31 00:41:09;;;;;;;2.90;0.93;;;;;;;16.08;93.41;98885.59;332971;28;6405;-73
2023/08/31 00:41:22;;;;;;;2.35;0.95;;;;;;;16.05;93.60;98881.38;338606;28;4670;-73
2023/08/31 00:41:34;;;;;;;2.55;1.05;;;;;;;16.08;93.44;98880.38;336809;28;17773;-73
2023/08/31 00:41:47;;;;;;;2.90;1.20;;;;;;;16.06;93.71;98882.25;339705;28;4640;-74
2023/08/31 00:42:00;;;;;;;2.25;1.20;;;;;;;16.07;93.76;98879.50;337044;28;17529;-74
2023/08/31 00:42:14;;;;;;;1.60;1.00;;;;;;;16.05;93.60;98885.78;339278;28;4662;-73
2023/08/31 00:42:26;;;;;;;0.98;0.80;;;;;;;16.01;93.85;98886.94;330833;28;17594;-73
2023/08/31 00:42:38;;;;;;;0.85;0.80;;;;;;;15.98;93.84;98882.75;339041;28;4659;-74
2023/08/31 00:42:50;;;;;;;1.10;0.75;;;;;;;16.00;94.27;98887.88;337118;28;10524;-74
2023/08/31 00:43:02;;;;;;;1.30;0.80;;;;;;;16.01;94.20;98879.09;339896;28;4603;-74
2023/08/31 00:43:20;;;;;;;1.40;0.70;;;;;;;15.97;94.16;98888.94;336905;28;10910;-74
2023/08/31 00:43:33;;;;;;;1.40;0.90;;;;;;;15.95;94.44;98881.16;334860;28;18781;-73
2023/08/31 00:43:45;;;;;;;1.55;1.10;;;;;;;15.86;94.68;98883.59;335546;28;17885;-74
2023/08/31 00:43:58;;;;;;;1.63;1.17;;;;;;;15.89;94.90;98886.81;339051;28;4631;-74
2023/08/31 00:44:10;;;;;;;1.60;1.00;;;;;;;15.96;94.62;98882.84;337674;28;5207;-74
2023/08/31 00:44:22;;;;;;;1.67;1.00;;;;;;;15.96;94.33;98882.84;339345;28;5250;-73
2023/08/31 00:44:34;;;;;;;1.52;1.02;;;;;;;16.02;94.34;98881.59;339223;28;5582;-74
2023/08/31 00:44:47;;;;;;;1.45;1.20;;;;;;;16.04;94.11;98884.13;337359;28;18206;-74
2023/08/31 00:44:59;;;;;;;1.30;1.08;;;;;;;16.05;93.95;98889.25;340107;28;4797;-73
2023/08/31 00:45:11;;;;;;;1.48;1.05;;;;;;;16.09;94.05;98889.88;337451;28;18247;-73
2023/08/31 00:45:24;;;;;;;1.40;1.00;;;;;;;16.15;93.59;98886.84;339113;28;4662;-73
2023/08/31 00:45:37;;;;;;;1.15;0.90;;;;;;;16.15;93.55;98884.22;337158;28;12101;-73
2023/08/31 00:45:54;;;;;;;1.00;0.80;;;;;;;16.19;93.48;98885.69;339683;28;4493;-73
2023/08/31 00:46:06;;;;;;;1.30;0.90;;;;;;;16.20;93.42;98890.00;337772;28;18252;-74
2023/08/31 00:46:18;;;;;;;1.50;0.95;;;;;;;16.18;93.33;98891.91;339811;28;4667;-73
2023/08/31 00:46:31;;;;;;;1.50;0.90;;;;;;;16.15;93.51;98892.09;339274;28;4732;-74
2023/08/31 00:46:43;;;;;;;1.30;0.90;;;;;;;16.13;93.47;98888.75;337600;28;17493;-73
2023/08/31 00:46:56;;;;;;;1.45;1.00;;;;;;;16.12;93.53;98887.06;336664;28;11799;-74
2023/08/31 00:47:08;;;;;;;1.63;1.25;;;;;;;16.09;93.35;98892.50;340008;28;4522;-74
2023/08/31 00:47:20;;;;;;;1.50;1.20;;;;;;;16.13;93.40;98893.97;339579;28;5218;-73
2023/08/31 00:47:32;;;;;;;1.60;1.05;;;;;;;16.10;93.57;98892.41;335619;28;18285;-73
2023/08/31 00:47:47;;;;;;;1.83;1.10;;;;;;;16.11;93.49;98885.38;336418;28;5686;-73
2023/08/31 00:47:59;;;;;;;1.67;1.05;;;;;;;16.11;93.48;98888.00;335859;28;17918;-73
2023/08/31 00:48:16;;;;;;;1.00;0.88;;;;;;;16.09;93.55;98892.50;337221;28;11780;-73
2023/08/31 00:48:28;;;;;;;1.08;0.95;;;;;;;16.02;93.87;98891.22;336528;28;17895;-73
2023/08/31 00:48:41;;;;;;;1.70;1.27;;;;;;;15.97;94.34;98883.69;339041;28;5919;-73
2023/08/31 00:48:54;;;;;;;3.08;1.40;;;;;;;15.98;94.43;98888.00;337116;28;18251;-73
2023/08/31 00:49:08;;;;;;;2.72;1.20;;;;;;;15.99;94.54;98887.03;339271;28;5683;-73
2023/08/31 00:49:20;;;;;;;1.63;1.05;;;;;;;15.98;94.23;98888.84;337541;28;17644;-73
2023/08/31 00:49:32;;;;;;;1.30;1.00;;;;;;;16.00;94.38;98883.50;339308;28;11397;-73
2023/08/31 00:49:44;;;;;;;1.10;0.90;;;;;;;16.04;94.00;98884.13;335029;28;18413;-74
2023/08/31 00:49:56;;;;;;;1.00;0.90;;;;;;;16.06;94.21;98884.88;339280;28;4652;-74
2023/08/31 00:50:08;;;;;;;1.10;0.80;;;;;;;16.08;94.10;98885.59;335905;28;18119;-73
2023/08/31 00:50:21;;;;;;;1.20;0.98;;;;;;;16.10;94.21;98883.72;338138;28;4494;-73
2023/08/31 00:50:33;;;;;;;1.10;0.95;;;;;;;16.12;94.04;98884.47;335521;28;19093;-73
2023/08/31 00:50:45;;;;;;;1.50;1.10;;;;;;;16.14;93.90;98885.19;337978;28;5521;-73
2023/08/31 00:50:58;;;;;;;1.60;1.10;;;;;;;16.12;93.79;98887.06;335859;28;17825;-73
2023/08/31 00:51:10;;;;;;;1.52;1.00;;;;;;;16.09;94.11;98882.84;337337;28;5081;-73
2023/08/31 00:51:23;;;;;;;1.40;0.90;;;;;;;16.13;94.10;98886.94;334713;28;10715;-74
2023/08/31 00:51:35;;;;;;;2.03;1.00;;;;;;;16.16;93.83;98888.53;337040;28;4486;-74
2023/08/31 00:51:49;;;;;;;2.38;1.10;;;;;;;16.17;93.83;98890.22;338772;28;4622;-73
2023/08/31 00:52:01;;;;;;;2.40;1.50;;;;;;;16.17;93.60;98891.03;337250;28;19293;-74
2023/08/31 00:52:13;;;;;;;2.28;1.58;;;;;;;16.20;93.75;98895.25;337029;28;17524;-73
2023/08/31 00:52:25;;;;;;;2.03;1.30;;;;;;;16.19;93.59;98890.94;340130;28;5436;-74
2023/08/31 00:52:37;;;;;;;2.28;1.13;;;;;;;16.18;93.60;98891.91;339664;28;5631;-73
2023/08/31 00:52:49;;;;;;;2.15;1.20;;;;;;;16.16;93.76;98892.00;335210;28;18241;-74
2023/08/31 00:53:01;;;;;;;2.47;1.20;;;;;;;16.15;93.73;98886.84;340276;28;5300;-74
2023/08/31 00:53:14;;;;;;;2.47;1.20;;;;;;;16.14;93.81;98888.66;338249;28;18818;-74
2023/08/31 00:53:27;;;;;;;2.22;1.20;;;;;;;16.14;93.87;98895.69;340448;28;4579;-74
2023/08/31 00:53:39;;;;;;;1.40;1.10;;;;;;;16.11;93.65;98891.47;337627;28;18260;-73
2023/08/31 00:53:54;;;;;;;2.00;1.02;;;;;;;16.13;93.82;98894.81;340045;28;4665;-73
2023/08/31 00:54:06;;;;;;;2.10;1.08;;;;;;;16.16;93.70;98893.78;331786;28;18547;-74
2023/08/31 00:54:19;;;;;;;1.27;0.90;;;;;;;16.19;93.68;98893.56;336230;28;5275;-73
2023/08/31 00:54:31;;;;;;;1.35;0.90;;;;;;;16.18;93.73;98890.13;338701;28;5447;-73
2023/08/31 00:54:44;;;;;;;1.13;0.85;;;;;;;16.18;93.76;98897.16;338217;28;4488;-73
2023/08/31 00:54:56;;;;;;;1.38;0.90;;;;;;;16.19;93.75;98893.56;334280;28;18216;-73
2023/08/31 00:55:09;;;;;;;1.77;1.00;;;;;;;16.15;93.94;98892.09;335871;28;5222;-73
2023/08/31 00:55:21;;;;;;;2.38;1.35;;;;;;;16.18;93.90;98894.53;337110;28;18975;-74
2023/08/31 00:55:33;;;;;;;1.88;1.40;;;;;;;16.16;93.87;98892.00;333342;28;4647;-73
2023/08/31 00:55:46;;;;;;;1.55;1.23;;;;;;;16.14;94.15;98891.25;334736;28;18238;-73
2023/08/31 00:55:58;;;;;;;1.30;0.95;;;;;;;16.14;93.88;98900.91;339020;28;5586;-73
2023/08/31 00:56:10;;;;;;;1.00;0.82;;;;;;;16.16;93.95;98889.38;337096;28;18958;-74
2023/08/31 00:56:22;;;;;;;1.13;0.90;;;;;;;16.19;93.90;98893.56;339840;28;5328;-73
2023/08/31 00:56:34;;;;;;;1.58;1.13;;;;;;;16.18;93.91;98899.78;335821;28;17990;-74
2023/08/31 00:56:46;;;;;;;1.73;1.20;;;;;;;16.23;93.63;98904.69;340139;28;5397;-73
2023/08/31 00:56:58;;;;;;;1.40;1.08;;;;;;;16.21;93.62;98896.91;338745;28;5561;-72
2023/08/31 00:57:10;;;;;;;1.17;1.00;;;;;;;16.18;93.77;98891.91;336244;28;5193;-73
2023/08/31 00:57:22;;;;;;;1.10;0.93;;;;;;;16.17;93.66;98893.66;338715;28;4575;-73
2023/08/31 00:57:34;;;;;;;1.50;1.00;;;;;;;16.19;93.92;98896.19;339019;28;5405;-73
2023/08/31 00:57:46;;;;;;;1.80;1.00;;;;;;;16.16;94.04;98893.78;335209;28;17554;-73
2023/08/31 00:57:59;;;;;;;2.08;1.00;;;;;;;16.14;94.01;98895.69;339935;28;5386;-73
2023/08/31 00:58:12;;;;;;;2.20;1.00;;;;;;;16.14;94.20;98893.06;337265;28;17796;-73
2023/08/31 00:58:25;;;;;;;1.27;0.90;;;;;;;16.12;94.06;98892.31;339858;28;4633;-73
2023/08/31 00:58:37;;;;;;;0.90;0.80;;;;;;;16.11;94.28;98895.88;336214;28;16767;-73
2023/08/31 00:58:49;;;;;;;0.90;0.80;;;;;;;16.00;94.67;98893.13;340382;28;5668;-73
2023/08/31 00:59:01;;;;;;;0.75;0.70;;;;;;;16.02;95.12;98893.84;333199;28;19715;-73
2023/08/31 00:59:14;;;;;;;0.80;0.80;;;;;;;15.92;95.21;98891.88;340116;28;4669;-73
2023/08/31 00:59:26;;;;;;;2.22;1.00;;;;;;;15.91;95.38;98890.16;336364;28;18068;-73
2023/08/31 00:59:38;;;;;;;3.55;1.13;;;;;;;15.96;95.46;98893.34;339194;28;6636;-73
2023/08/31 00:59:50;;;;;;;4.15;1.38;;;;;;;15.98;95.07;98894.06;336788;28;7194;-73
2023/08/31 01:00:08;;;;;;;2.10;1.48;;;;;;;16.06;94.97;98892.75;340043;28;5764;-73
2023/08/31 01:00:21;;;;;;;1.42;1.08;;;;;;;16.10;94.96;98894.22;332308;28;17403;-73
2023/08/31 01:01:03;;;;;;;1.50;0.90;;;;;;;16.20;94.68;98895.25;333993;28;18483;-73
2023/08/31 01:01:39;;;;;;;1.52;0.82;;;;;;;16.19;94.46;98888.31;334694;28;18919;-73
2023/08/31 01:02:03;;;;;;;1.80;1.00;;;;;;;16.25;94.34;98887.91;335323;28;17606;-73
2023/08/31 01:02:34;;;;;;;2.45;1.20;;;;;;;16.35;93.81;98890.75;337081;28;16886;-73